Time;durP1;ratioP1;P1;durP2;ratioP2;P2;SDS_P1;SDS_P2;PMS_P1;PMS_P2;Temp;Humidity;BMP_temperature;BMP_pressure;BME280_temperature;BME280_humidity;BME280_pressure;Samples;Min_cycle;Max_cycle;Signal;HPM_P1;HPM_P2
2021/09/07 00:04:28;;;;;;;19.12;10.95;;;16.10;99.90;;;;;;6732259;88;20206;-82
2021/09/07 00:14:29;;;;;;;18.73;11.55;;;15.90;99.90;;;;;;6731631;88;20211;-81
2021/09/07 00:24:29;;;;;;;20.25;10.80;;;16.10;99.90;;;;;;6727667;88;20182;-80
2021/09/07 00:34:32;;;;;;;19.17;11.25;;;15.90;99.90;;;;;;6730370;88;20227;-81
2021/09/07 00:44:32;;;;;;;18.35;10.68;;;15.70;99.90;;;;;;6709536;77;20195;-74
2021/09/07 00:54:38;;;;;;;22.35;11.05;;;15.60;99.90;;;;;;6689282;88;20205;-74
2021/09/07 01:04:38;;;;;;;22.27;11.15;;;15.80;99.90;;;;;;6696489;88;20212;-74
2021/09/07 01:14:40;;;;;;;19.25;10.63;;;15.70;99.90;;;;;;6696212;88;20185;-77
2021/09/07 01:24:41;;;;;;;18.92;9.98;;;15.50;99.90;;;;;;6696810;88;20194;-74
2021/09/07 01:34:42;;;;;;;22.20;11.45;;;15.50;99.90;;;;;;6698115;88;20654;-77
2021/09/07 01:44:45;;;;;;;18.95;10.98;;;15.30;99.90;;;;;;6699566;88;20213;-77
2021/09/07 01:54:47;;;;;;;20.10;10.52;;;15.10;99.90;;;;;;6696220;88;20186;-77
2021/09/07 02:04:47;;;;;;;18.75;10.43;;;14.90;99.90;;;;;;6692664;88;20190;-77
2021/09/07 02:14:48;;;;;;;18.60;11.50;;;14.90;99.90;;;;;;6695220;88;20199;-77
2021/09/07 02:24:49;;;;;;;20.58;11.63;;;14.80;99.90;;;;;;6695618;88;20186;-77
2021/09/07 02:34:49;;;;;;;20.67;11.57;;;14.80;99.90;;;;;;6695032;88;20191;-77
2021/09/07 02:44:50;;;;;;;22.85;10.77;;;14.70;99.90;;;;;;6694774;88;20279;-77
2021/09/07 02:54:50;;;;;;;22.87;11.27;;;14.70;99.90;;;;;;6695485;88;20321;-76
2021/09/07 03:04:51;;;;;;;21.42;11.80;;;14.50;99.90;;;;;;6695806;88;20214;-77
2021/09/07 03:14:52;;;;;;;19.42;12.37;;;14.50;99.90;;;;;;6696447;88;20990;-77
2021/09/07 03:24:52;;;;;;;20.73;11.52;;;14.40;99.90;;;;;;6698565;88;20753;-77
2021/09/07 03:34:52;;;;;;;20.90;11.55;;;14.40;99.90;;;;;;6694874;88;20190;-77
2021/09/07 03:44:53;;;;;;;20.83;12.05;;;14.50;99.90;;;;;;6695145;88;20698;-77
2021/09/07 03:54:56;;;;;;;18.05;11.05;;;14.60;99.90;;;;;;6694668;88;20602;-77
2021/09/07 04:04:56;;;;;;;21.15;11.48;;;14.60;99.90;;;;;;6694683;88;20329;-77
2021/09/07 04:14:57;;;;;;;18.70;12.02;;;14.30;99.90;;;;;;6694294;88;20325;-76
2021/09/07 04:24:57;;;;;;;19.55;12.30;;;14.40;99.90;;;;;;6698180;88;20243;-77
2021/09/07 04:34:58;;;;;;;21.33;11.73;;;14.20;99.90;;;;;;6697034;88;20179;-76
2021/09/07 04:44:58;;;;;;;28.15;12.48;;;14.10;99.90;;;;;;6697079;88;20445;-77
2021/09/07 04:54:59;;;;;;;20.98;12.13;;;14.00;99.90;;;;;;6696659;88;20252;-76
2021/09/07 05:05:06;;;;;;;20.83;11.97;;;14.00;99.90;;;;;;6695350;88;20333;-76
2021/09/07 05:15:07;;;;;;;23.75;13.35;;;13.90;99.90;;;;;;6694107;88;20304;-77
2021/09/07 05:25:08;;;;;;;24.45;13.52;;;13.90;99.90;;;;;;6694755;88;20382;-76
2021/09/07 05:35:09;;;;;;;22.50;12.75;;;14.30;99.90;;;;;;6693750;88;20304;-76
2021/09/07 05:45:12;;;;;;;23.87;13.07;;;14.30;99.90;;;;;;6695030;88;20227;-77
2021/09/07 05:55:14;;;;;;;24.05;13.88;;;14.50;99.90;;;;;;6696981;88;20193;-77
2021/09/07 06:05:15;;;;;;;21.65;12.88;;;14.70;99.90;;;;;;6698066;88;20199;-77
2021/09/07 06:15:15;;;;;;;22.30;12.68;;;14.80;99.90;;;;;;6696511;88;20205;-76
2021/09/07 06:25:16;;;;;;;21.12;13.07;;;14.90;99.90;;;;;;6696371;88;20708;-76
2021/09/07 06:35:17;;;;;;;21.58;13.57;;;15.30;99.90;;;;;;6695198;88;20190;-76
2021/09/07 06:55:20;;;;;;;21.30;12.85;;;16.20;99.90;;;;;;6682873;88;20235;-77
2021/09/07 07:05:24;;;;;;;22.15;13.25;;;16.50;99.90;;;;;;6682701;88;20234;-77
2021/09/07 07:15:24;;;;;;;21.17;12.63;;;16.80;99.90;;;;;;6685225;88;20209;-77
2021/09/07 07:25:25;;;;;;;21.08;12.25;;;17.30;99.90;;;;;;6685802;88;20241;-77
2021/09/07 07:35:26;;;;;;;22.60;12.73;;;17.90;99.90;;;;;;6686223;88;20183;-78
2021/09/07 07:45:27;;;;;;;21.20;12.37;;;18.30;99.90;;;;;;6678684;88;20657;-76
2021/09/07 07:55:27;;;;;;;23.98;11.70;;;18.70;99.90;;;;;;6684278;88;20561;-78
2021/09/07 08:05:28;;;;;;;22.62;11.93;;;19.20;99.90;;;;;;6680913;89;20217;-78
2021/09/07 08:15:28;;;;;;;20.88;12.37;;;19.50;99.90;;;;;;6685560;89;20207;-77
2021/09/07 08:25:29;;;;;;;27.80;12.00;;;19.90;99.90;;;;;;6686025;89;20242;-78
2021/09/07 08:35:29;;;;;;;21.35;11.82;;;20.30;99.90;;;;;;6686266;89;20198;-77
2021/09/07 08:45:31;;;;;;;26.12;13.98;;;20.80;99.90;;;;;;6682214;88;20202;-77
2021/09/07 08:55:32;;;;;;;24.15;11.52;;;21.00;99.90;;;;;;6683806;89;20599;-77
2021/09/07 09:05:32;;;;;;;20.02;11.05;;;21.60;99.90;;;;;;6686772;88;20207;-78
2021/09/07 09:15:33;;;;;;;22.15;11.60;;;22.30;99.90;;;;;;6686114;88;20219;-77
2021/09/07 09:25:35;;;;;;;19.40;11.15;;;22.70;99.90;;;;;;6679673;88;20311;-77
2021/09/07 09:35:48;;;;;;;17.90;10.77;;;23.20;99.90;;;;;;6679119;88;20172;-77
2021/09/07 09:45:49;;;;;;;17.12;10.68;;;24.20;99.90;;;;;;6685606;88;20184;-78
2021/09/07 09:55:53;;;;;;;19.52;11.10;;;25.10;99.90;;;;;;6678372;88;20700;-77
2021/09/07 10:05:54;;;;;;;18.77;10.82;;;25.20;99.90;;;;;;6679148;88;20237;-77
2021/09/07 10:15:59;;;;;;;17.35;10.48;;;25.50;99.90;;;;;;6686551;88;20209;-79
2021/09/07 10:26:01;;;;;;;16.92;10.75;;;26.90;99.90;;;;;;6685499;88;20183;-79
2021/09/07 10:36:13;;;;;;;17.77;11.30;;;27.80;99.00;;;;;;6690796;88;20691;-77
2021/09/07 10:46:15;;;;;;;20.40;10.33;;;26.80;99.30;;;;;;6683231;88;20706;-78
2021/09/07 10:56:25;;;;;;;16.00;10.30;;;27.50;98.20;;;;;;6684378;88;20750;-79
2021/09/07 11:06:38;;;;;;;18.67;10.35;;;28.20;97.40;;;;;;6684860;88;20191;-77
2021/09/07 11:16:38;;;;;;;13.25;9.63;;;28.30;96.10;;;;;;6683916;88;20232;-76
2021/09/07 11:26:39;;;;;;;14.68;9.38;;;30.70;93.10;;;;;;6683860;88;20622;-78
2021/09/07 11:36:39;;;;;;;13.10;8.77;;;30.10;91.50;;;;;;6684328;88;20193;-77
2021/09/07 11:46:40;;;;;;;14.50;9.07;;;28.70;90.50;;;;;;6684031;88;20209;-77
2021/09/07 11:56:41;;;;;;;13.70;8.73;;;28.80;90.30;;;;;;6683563;88;20340;-77
2021/09/07 12:06:46;;;;;;;12.65;8.48;;;29.00;89.80;;;;;;6683167;88;20300;-76
2021/09/07 12:17:04;;;;;;;15.10;8.70;;;31.80;87.00;;;;;;6682737;89;20978;-77
2021/09/07 12:27:22;;;;;;;12.95;8.23;;;32.40;81.30;;;;;;6682354;89;20182;-77
2021/09/07 12:37:22;;;;;;;13.05;7.10;;;33.20;81.60;;;;;;6683185;88;20201;-77
2021/09/07 12:47:23;;;;;;;9.70;6.37;;;31.70;78.00;;;;;;6685365;88;20202;-78
2021/09/07 12:57:23;;;;;;;10.00;7.05;;;33.40;76.50;;;;;;6684224;88;20236;-76
2021/09/07 13:07:24;;;;;;;;;;;34.50;74.10;;;;;;6684651;88;20719;-76
2021/09/07 13:17:24;;;;;;;;;;;35.40;72.10;;;;;;6684399;88;20071;-77
2021/09/07 13:27:25;;;;;;;12.48;6.43;;;35.00;70.10;;;;;;6684579;88;20457;-77
2021/09/07 13:37:25;;;;;;;9.75;6.32;;;34.70;70.60;;;;;;6685723;88;20564;-76
2021/09/07 13:47:26;;;;;;;8.13;5.87;;;32.90;72.80;;;;;;6685501;88;20658;-77
2021/09/07 13:57:26;;;;;;;10.48;5.82;;;33.80;70.80;;;;;;6685438;88;20240;-76
2021/09/07 14:07:27;;;;;;;8.10;6.20;;;33.70;70.90;;;;;;6674916;88;20236;-76
2021/09/07 14:17:28;;;;;;;8.43;6.20;;;33.60;70.80;;;;;;6666877;89;20756;-77
2021/09/07 14:27:29;;;;;;;7.95;5.37;;;33.60;70.60;;;;;;6666999;89;20232;-77
2021/09/07 14:37:30;;;;;;;8.15;5.87;;;34.10;70.10;;;;;;6663388;89;20285;-76
2021/09/07 14:47:31;;;;;;;9.63;5.90;;;33.30;69.80;;;;;;6667018;88;20719;-76
2021/09/07 14:57:31;;;;;;;8.40;5.10;;;32.10;71.30;;;;;;6666353;89;20231;-76
2021/09/07 15:07:32;;;;;;;13.55;5.93;;;32.50;72.10;;;;;;6666145;89;20703;-76
2021/09/07 15:17:33;;;;;;;;;;;32.50;71.50;;;;;;6678761;89;20249;-77
2021/09/07 15:27:35;;;;;;;8.95;5.50;;;32.20;71.00;;;;;;6683779;88;20598;-77
2021/09/07 15:37:36;;;;;;;6.05;4.43;;;31.40;72.20;;;;;;6688755;88;20725;-77
2021/09/07 15:47:37;;;;;;;9.30;4.53;;;31.20;71.20;;;;;;6684327;88;20174;-76
2021/09/07 15:57:38;;;;;;;6.70;4.17;;;30.70;72.40;;;;;;6690373;88;20727;-78
2021/09/07 16:07:38;;;;;;;8.02;4.18;;;30.40;72.70;;;;;;6690033;89;20212;-77
2021/09/07 16:17:39;;;;;;;6.40;4.20;;;29.60;72.90;;;;;;6685728;88;20257;-77
2021/09/07 16:27:40;;;;;;;9.00;4.50;;;29.30;75.90;;;;;;6685175;77;20228;-75
2021/09/07 16:37:40;;;;;;;8.32;4.43;;;29.00;76.70;;;;;;6660687;89;20562;-77
2021/09/07 16:47:41;;;;;;;7.28;4.15;;;28.40;77.50;;;;;;6642028;89;20197;-77
2021/09/07 16:57:41;;;;;;;7.82;4.87;;;28.20;79.00;;;;;;6650295;89;20297;-77
2021/09/07 17:07:55;;;;;;;6.15;4.43;;;28.00;80.20;;;;;;6648725;89;20193;-77
2021/09/07 17:17:56;;;;;;;7.72;4.82;;;27.50;80.30;;;;;;6645895;89;20208;-77
2021/09/07 17:27:57;;;;;;;7.37;4.68;;;26.90;81.30;;;;;;6648520;88;20212;-76
2021/09/07 17:48:17;;;;;;;8.05;4.60;;;25.90;83.50;;;;;;6636188;89;20196;-76
2021/09/07 17:58:19;;;;;;;8.63;5.60;;;25.30;85.20;;;;;;6642762;89;20357;-77
2021/09/07 18:08:19;;;;;;;10.35;5.97;;;24.90;89.50;;;;;;6649965;89;20317;-77
2021/09/07 18:18:22;;;;;;;10.68;6.30;;;24.40;91.80;;;;;;6653647;89;20277;-77
2021/09/07 18:28:23;;;;;;;12.00;6.43;;;23.70;95.10;;;;;;6649700;89;20273;-78
2021/09/07 18:38:24;;;;;;;12.00;7.18;;;23.20;98.10;;;;;;6649329;89;20215;-78
2021/09/07 18:48:24;;;;;;;11.48;6.78;;;23.10;99.90;;;;;;6654306;89;20259;-79
2021/09/07 18:58:25;;;;;;;11.80;6.28;;;22.50;99.90;;;;;;6648013;89;20199;-77
2021/09/07 19:08:26;;;;;;;10.95;6.55;;;22.20;99.90;;;;;;6644257;89;20184;-80
2021/09/07 19:18:27;;;;;;;8.88;6.07;;;21.90;99.90;;;;;;6640970;89;20361;-75
2021/09/07 19:28:27;;;;;;;10.48;5.95;;;21.60;99.90;;;;;;6642706;89;20385;-78
2021/09/07 19:38:28;;;;;;;10.98;6.37;;;21.10;99.90;;;;;;6645316;89;20197;-75
2021/09/07 19:48:29;;;;;;;11.23;6.95;;;20.60;99.90;;;;;;6647811;89;20709;-78
2021/09/07 19:58:29;;;;;;;11.60;6.97;;;20.50;99.90;;;;;;6643525;89;20209;-78
2021/09/07 20:08:30;;;;;;;12.00;7.87;;;20.20;99.90;;;;;;6646372;89;20203;-79
2021/09/07 20:18:31;;;;;;;11.97;6.93;;;19.90;99.90;;;;;;6636487;89;20709;-78
2021/09/07 20:28:31;;;;;;;14.77;7.72;;;20.00;99.90;;;;;;6640553;88;20546;-78
2021/09/07 20:38:32;;;;;;;12.05;6.78;;;19.70;99.90;;;;;;6643054;89;20318;-79
2021/09/07 20:48:32;;;;;;;12.97;7.20;;;19.60;99.90;;;;;;6644057;89;20189;-80
2021/09/07 20:58:33;;;;;;;13.95;8.30;;;19.40;99.90;;;;;;6638713;89;20525;-79
2021/09/07 21:08:34;;;;;;;14.63;7.93;;;19.30;99.90;;;;;;6640340;89;20726;-78
2021/09/07 21:18:34;;;;;;;12.85;8.18;;;19.10;99.90;;;;;;6646643;89;20321;-76
2021/09/07 21:28:35;;;;;;;13.20;8.05;;;19.20;99.90;;;;;;6648730;89;20224;-75
2021/09/07 21:38:35;;;;;;;16.02;8.55;;;18.90;99.90;;;;;;6661560;89;20165;-78
2021/09/07 21:48:36;;;;;;;14.05;7.95;;;18.60;99.90;;;;;;6656473;89;20211;-78
2021/09/07 21:58:36;;;;;;;13.23;8.45;;;18.30;99.90;;;;;;6661097;89;20184;-78
2021/09/07 22:08:37;;;;;;;14.48;9.00;;;18.20;99.90;;;;;;6659868;89;20187;-78
2021/09/07 22:18:37;;;;;;;17.50;9.53;;;18.10;99.90;;;;;;6662126;89;20187;-78
2021/09/07 22:28:38;;;;;;;18.80;9.57;;;18.00;99.90;;;;;;6660714;89;20211;-78
2021/09/07 22:38:38;;;;;;;13.45;8.43;;;17.90;99.90;;;;;;6658336;89;20260;-76
2021/09/07 22:48:39;;;;;;;14.20;8.80;;;17.90;99.90;;;;;;6659076;89;20278;-78
2021/09/07 22:58:39;;;;;;;12.33;8.03;;;17.80;99.90;;;;;;6660883;89;20183;-76
2021/09/07 23:08:40;;;;;;;13.98;8.55;;;17.60;99.90;;;;;;6660710;89;20499;-76
2021/09/07 23:18:41;;;;;;;14.43;8.27;;;17.50;99.90;;;;;;6656544;89;20188;-76
2021/09/07 23:28:42;;;;;;;14.18;8.75;;;17.40;99.90;;;;;;6647287;89;20517;-75
2021/09/07 23:38:43;;;;;;;16.65;10.05;;;17.20;99.90;;;;;;6641507;89;20390;-76
2021/09/07 23:48:43;;;;;;;15.18;8.52;;;17.20;99.90;;;;;;6647535;89;20249;-76
2021/09/07 23:58:44;;;;;;;15.18;9.18;;;17.00;99.90;;;;;;6642316;89;20362;-78
